Preview of NWS' New Version of Forecast
This preview is not operational and should not be used for support decisions.

Terminal Aerodrome Forecast (TAF)

Issued by National Weather Service (NWS)

                            
000
FTUS42 KCAE 240540
TAFOGB
TAF
KOGB 240540Z 2406/2506 25006KT P6SM -SHRA SCT030 OVC110
     FM240800 VRB05KT P6SM VCSH SCT008 BKN110
     FM241000 00000KT 3SM BR OVC008
     FM241400 06005KT P6SM VCSH BKN025
     FM241700 05008KT P6SM -SHRA VCTS SCT025CB OVC030
     FM250000 05008KT P6SM -SHRA OVC015=